sensor_id;sensor_type;location;lat;lon;timestamp;pressure;altitude;pressure_sealevel;temperature;humidity
47706;BME280;33471;52.104;1.318;2022-11-18T00:00:32;98668.37;;;10.21;55.07
47706;BME280;33471;52.104;1.318;2022-11-18T00:03:00;98667.37;;;9.62;55.68
47706;BME280;33471;52.104;1.318;2022-11-18T00:05:27;98673.66;;;10.48;56.05
47706;BME280;33471;52.104;1.318;2022-11-18T00:07:55;98676.33;;;10.16;56.22
47706;BME280;33471;52.104;1.318;2022-11-18T00:10:23;98678.30;;;10.16;57.18
47706;BME280;33471;52.104;1.318;2022-11-18T00:12:49;98681.26;;;9.51;57.92
47706;BME280;33471;52.104;1.318;2022-11-18T00:15:16;98683.80;;;9.21;58.86
47706;BME280;33471;52.104;1.318;2022-11-18T00:17:43;98690.52;;;10.24;57.24
47706;BME280;33471;52.104;1.318;2022-11-18T00:20:10;98690.88;;;10.04;56.47
47706;BME280;33471;52.104;1.318;2022-11-18T00:22:37;98695.65;;;10.04;56.01
47706;BME280;33471;52.104;1.318;2022-11-18T00:25:05;98698.35;;;9.60;56.50
47706;BME280;33471;52.104;1.318;2022-11-18T00:27:32;98704.53;;;10.59;55.15
47706;BME280;33471;52.104;1.318;2022-11-18T00:30:00;98707.45;;;9.99;55.64
47706;BME280;33471;52.104;1.318;2022-11-18T00:32:27;98712.35;;;10.22;56.68
47706;BME280;33471;52.104;1.318;2022-11-18T00:34:55;98716.18;;;10.18;56.46
47706;BME280;33471;52.104;1.318;2022-11-18T00:37:22;98714.00;;;9.89;56.42
47706;BME280;33471;52.104;1.318;2022-11-18T00:39:49;98721.23;;;10.64;56.55
47706;BME280;33471;52.104;1.318;2022-11-18T00:42:16;98722.33;;;10.28;56.22
47706;BME280;33471;52.104;1.318;2022-11-18T00:44:44;98727.77;;;10.48;55.79
47706;BME280;33471;52.104;1.318;2022-11-18T00:47:11;98729.37;;;10.41;55.89
47706;BME280;33471;52.104;1.318;2022-11-18T00:49:38;98734.50;;;9.29;58.79
47706;BME280;33471;52.104;1.318;2022-11-18T00:52:05;98733.67;;;9.35;59.26
47706;BME280;33471;52.104;1.318;2022-11-18T00:54:32;98735.47;;;9.75;57.68
47706;BME280;33471;52.104;1.318;2022-11-18T00:57:00;98743.57;;;9.58;56.50
47706;BME280;33471;52.104;1.318;2022-11-18T00:59:27;98741.77;;;9.20;58.19
47706;BME280;33471;52.104;1.318;2022-11-18T01:01:55;98744.32;;;9.30;59.78
47706;BME280;33471;52.104;1.318;2022-11-18T01:04:22;98758.83;;;8.67;60.48
47706;BME280;33471;52.104;1.318;2022-11-18T01:06:50;98758.56;;;8.52;61.88
47706;BME280;33471;52.104;1.318;2022-11-18T01:09:17;98763.27;;;8.89;60.89
47706;BME280;33471;52.104;1.318;2022-11-18T01:11:44;98766.32;;;9.11;61.59
47706;BME280;33471;52.104;1.318;2022-11-18T01:14:11;98770.85;;;9.07;60.00
47706;BME280;33471;52.104;1.318;2022-11-18T01:16:38;98771.66;;;9.77;58.72
47706;BME280;33471;52.104;1.318;2022-11-18T01:19:05;98774.09;;;8.87;59.30
47706;BME280;33471;52.104;1.318;2022-11-18T01:21:32;98773.31;;;9.60;59.09
47706;BME280;33471;52.104;1.318;2022-11-18T01:24:00;98777.63;;;8.80;59.12
47706;BME280;33471;52.104;1.318;2022-11-18T01:26:27;98788.01;;;9.30;60.04
47706;BME280;33471;52.104;1.318;2022-11-18T01:28:55;98792.62;;;8.99;59.81
47706;BME280;33471;52.104;1.318;2022-11-18T01:31:23;98792.58;;;9.20;58.93
47706;BME280;33471;52.104;1.318;2022-11-18T01:33:51;98792.24;;;9.44;58.24
47706;BME280;33471;52.104;1.318;2022-11-18T01:36:20;98795.06;;;9.49;58.78
47706;BME280;33471;52.104;1.318;2022-11-18T01:38:47;98803.12;;;9.16;59.97
47706;BME280;33471;52.104;1.318;2022-11-18T01:41:15;98797.48;;;9.22;59.05
47706;BME280;33471;52.104;1.318;2022-11-18T01:43:53;98801.81;;;9.59;58.11
47706;BME280;33471;52.104;1.318;2022-11-18T01:46:23;98810.50;;;9.71;59.31
47706;BME280;33471;52.104;1.318;2022-11-18T01:48:54;98815.76;;;8.70;61.82
47706;BME280;33471;52.104;1.318;2022-11-18T01:51:24;98815.76;;;8.89;62.17
47706;BME280;33471;52.104;1.318;2022-11-18T01:53:57;98820.52;;;8.65;62.50
47706;BME280;33471;52.104;1.318;2022-11-18T01:56:30;98825.85;;;9.07;60.79
47706;BME280;33471;52.104;1.318;2022-11-18T01:59:02;98829.89;;;9.36;59.56
47706;BME280;33471;52.104;1.318;2022-11-18T02:01:33;98835.06;;;8.97;61.12
47706;BME280;33471;52.104;1.318;2022-11-18T02:04:00;98839.84;;;8.09;62.12
47706;BME280;33471;52.104;1.318;2022-11-18T02:06:27;98835.92;;;8.72;63.20
47706;BME280;33471;52.104;1.318;2022-11-18T02:08:55;98838.36;;;8.45;62.88
47706;BME280;33471;52.104;1.318;2022-11-18T02:11:23;98847.80;;;8.08;64.65
47706;BME280;33471;52.104;1.318;2022-11-18T02:13:50;98848.66;;;8.46;63.25
47706;BME280;33471;52.104;1.318;2022-11-18T02:16:20;98851.96;;;8.46;62.73
47706;BME280;33471;52.104;1.318;2022-11-18T02:18:55;98851.30;;;8.29;62.75
47706;BME280;33471;52.104;1.318;2022-11-18T02:21:37;98855.85;;;8.53;62.25
47706;BME280;33471;52.104;1.318;2022-11-18T02:24:24;98860.60;;;8.91;61.79
47706;BME280;33471;52.104;1.318;2022-11-18T02:27:53;98862.11;;;10.09;59.80
47706;BME280;33471;52.104;1.318;2022-11-18T02:30:24;98868.53;;;9.02;60.54
47706;BME280;33471;52.104;1.318;2022-11-18T02:32:55;98869.92;;;8.76;62.74
47706;BME280;33471;52.104;1.318;2022-11-18T02:35:28;98873.57;;;8.11;62.89
47706;BME280;33471;52.104;1.318;2022-11-18T02:38:00;98872.73;;;9.08;59.49
47706;BME280;33471;52.104;1.318;2022-11-18T02:40:32;98880.77;;;9.71;59.75
47706;BME280;33471;52.104;1.318;2022-11-18T02:43:05;98885.64;;;8.79;60.45
47706;BME280;33471;52.104;1.318;2022-11-18T02:45:34;98891.14;;;9.12;60.03
47706;BME280;33471;52.104;1.318;2022-11-18T02:48:06;98892.42;;;7.84;61.31
47706;BME280;33471;52.104;1.318;2022-11-18T02:50:36;98894.15;;;10.04;58.94
47706;BME280;33471;52.104;1.318;2022-11-18T02:53:06;98895.09;;;8.37;60.52
47706;BME280;33471;52.104;1.318;2022-11-18T02:55:35;98893.45;;;9.15;59.32
47706;BME280;33471;52.104;1.318;2022-11-18T02:58:05;98892.62;;;9.37;57.01
47706;BME280;33471;52.104;1.318;2022-11-18T03:00:35;98901.61;;;10.05;57.14
47706;BME280;33471;52.104;1.318;2022-11-18T03:03:23;98901.89;;;8.88;59.11
47706;BME280;33471;52.104;1.318;2022-11-18T03:05:56;98906.14;;;9.72;57.91
47706;BME280;33471;52.104;1.318;2022-11-18T03:08:28;98907.36;;;9.43;58.46
47706;BME280;33471;52.104;1.318;2022-11-18T03:11:05;98910.11;;;9.55;57.45
47706;BME280;33471;52.104;1.318;2022-11-18T03:13:38;98911.57;;;9.59;57.75
47706;BME280;33471;52.104;1.318;2022-11-18T03:16:12;98913.95;;;9.74;57.24
47706;BME280;33471;52.104;1.318;2022-11-18T03:18:49;98914.64;;;9.17;58.86
47706;BME280;33471;52.104;1.318;2022-11-18T03:21:22;98917.67;;;8.44;60.54
47706;BME280;33471;52.104;1.318;2022-11-18T03:23:56;98920.84;;;9.02;60.15
47706;BME280;33471;52.104;1.318;2022-11-18T03:26:30;98927.14;;;9.34;60.77
47706;BME280;33471;52.104;1.318;2022-11-18T03:29:00;98936.87;;;8.59;60.36
47706;BME280;33471;52.104;1.318;2022-11-18T03:31:35;98938.33;;;8.83;62.02
47706;BME280;33471;52.104;1.318;2022-11-18T03:34:08;98940.75;;;8.69;59.49
47706;BME280;33471;52.104;1.318;2022-11-18T03:36:40;98942.81;;;9.59;58.21
47706;BME280;33471;52.104;1.318;2022-11-18T03:39:12;98942.43;;;9.35;58.54
47706;BME280;33471;52.104;1.318;2022-11-18T03:41:45;98949.69;;;9.79;57.85
47706;BME280;33471;52.104;1.318;2022-11-18T03:44:20;98955.36;;;9.75;58.40
47706;BME280;33471;52.104;1.318;2022-11-18T03:46:51;98955.83;;;9.36;59.23
47706;BME280;33471;52.104;1.318;2022-11-18T03:49:33;98963.00;;;10.00;56.99
47706;BME280;33471;52.104;1.318;2022-11-18T03:52:06;98963.28;;;9.79;56.01
47706;BME280;33471;52.104;1.318;2022-11-18T03:54:37;98966.58;;;10.09;56.36
47706;BME280;33471;52.104;1.318;2022-11-18T03:57:12;98968.65;;;9.71;55.91
47706;BME280;33471;52.104;1.318;2022-11-18T03:59:46;98967.82;;;9.50;58.75
47706;BME280;33471;52.104;1.318;2022-11-18T04:02:17;98975.02;;;10.35;57.41
47706;BME280;33471;52.104;1.318;2022-11-18T04:04:48;98974.91;;;9.38;59.11
47706;BME280;33471;52.104;1.318;2022-11-18T04:07:22;98981.15;;;9.58;56.97
47706;BME280;33471;52.104;1.318;2022-11-18T04:09:54;98982.07;;;9.94;57.60
47706;BME280;33471;52.104;1.318;2022-11-18T04:12:25;98988.09;;;9.91;56.82
47706;BME280;33471;52.104;1.318;2022-11-18T04:14:55;98989.93;;;9.58;57.25
47706;BME280;33471;52.104;1.318;2022-11-18T04:17:25;98990.01;;;10.28;55.83
47706;BME280;33471;52.104;1.318;2022-11-18T04:19:54;98994.06;;;9.56;57.44
47706;BME280;33471;52.104;1.318;2022-11-18T04:22:21;98997.82;;;9.35;57.48
47706;BME280;33471;52.104;1.318;2022-11-18T04:24:49;98999.51;;;10.23;56.22
47706;BME280;33471;52.104;1.318;2022-11-18T04:27:16;99003.35;;;10.05;55.49
47706;BME280;33471;52.104;1.318;2022-11-18T04:29:43;99009.06;;;10.41;54.85
47706;BME280;33471;52.104;1.318;2022-11-18T04:32:10;99016.60;;;10.17;55.70
47706;BME280;33471;52.104;1.318;2022-11-18T04:34:37;99022.39;;;10.05;56.32
47706;BME280;33471;52.104;1.318;2022-11-18T04:37:04;99026.15;;;9.99;55.27
47706;BME280;33471;52.104;1.318;2022-11-18T04:39:31;99029.04;;;9.25;56.97
47706;BME280;33471;52.104;1.318;2022-11-18T04:41:59;99035.92;;;10.09;55.08
47706;BME280;33471;52.104;1.318;2022-11-18T04:44:27;99036.31;;;9.68;56.04
47706;BME280;33471;52.104;1.318;2022-11-18T04:46:57;99038.56;;;9.06;56.98
47706;BME280;33471;52.104;1.318;2022-11-18T04:49:26;99044.39;;;10.05;55.65
47706;BME280;33471;52.104;1.318;2022-11-18T04:51:55;99047.84;;;9.23;56.84
47706;BME280;33471;52.104;1.318;2022-11-18T04:54:23;99054.75;;;9.66;56.53
47706;BME280;33471;52.104;1.318;2022-11-18T04:56:50;99062.57;;;9.76;56.05
47706;BME280;33471;52.104;1.318;2022-11-18T04:59:20;99065.59;;;9.88;56.49
47706;BME280;33471;52.104;1.318;2022-11-18T05:01:48;99072.92;;;10.89;54.16
47706;BME280;33471;52.104;1.318;2022-11-18T05:04:18;99078.21;;;9.88;55.49
47706;BME280;33471;52.104;1.318;2022-11-18T05:06:46;99076.72;;;10.24;55.85
47706;BME280;33471;52.104;1.318;2022-11-18T05:09:14;99083.59;;;9.94;55.04
47706;BME280;33471;52.104;1.318;2022-11-18T05:11:42;99084.18;;;9.64;55.96
47706;BME280;33471;52.104;1.318;2022-11-18T05:14:10;99089.92;;;8.27;58.29
47706;BME280;33471;52.104;1.318;2022-11-18T05:16:37;99090.39;;;9.94;55.52
47706;BME280;33471;52.104;1.318;2022-11-18T05:19:05;99092.47;;;10.01;54.19
47706;BME280;33471;52.104;1.318;2022-11-18T05:21:32;99096.48;;;10.97;53.30
47706;BME280;33471;52.104;1.318;2022-11-18T05:24:00;99109.48;;;10.23;53.08
47706;BME280;33471;52.104;1.318;2022-11-18T05:26:28;99111.75;;;9.40;55.37
47706;BME280;33471;52.104;1.318;2022-11-18T05:28:56;99115.04;;;10.07;53.70
47706;BME280;33471;52.104;1.318;2022-11-18T05:31:23;99117.06;;;10.55;53.55
47706;BME280;33471;52.104;1.318;2022-11-18T05:33:50;99120.02;;;10.59;53.20
47706;BME280;33471;52.104;1.318;2022-11-18T05:36:19;99122.72;;;9.65;54.94
47706;BME280;33471;52.104;1.318;2022-11-18T05:38:48;99123.13;;;9.96;55.00
47706;BME280;33471;52.104;1.318;2022-11-18T05:41:16;99125.27;;;10.22;53.40
47706;BME280;33471;52.104;1.318;2022-11-18T05:43:43;99130.50;;;10.56;53.81
47706;BME280;33471;52.104;1.318;2022-11-18T05:46:10;99132.54;;;10.04;54.04
47706;BME280;33471;52.104;1.318;2022-11-18T05:48:37;99139.34;;;10.46;55.12
47706;BME280;33471;52.104;1.318;2022-11-18T05:51:04;99137.75;;;9.51;54.85
47706;BME280;33471;52.104;1.318;2022-11-18T05:53:31;99138.65;;;10.52;53.76
47706;BME280;33471;52.104;1.318;2022-11-18T05:56:02;99145.39;;;9.87;53.86
47706;BME280;33471;52.104;1.318;2022-11-18T05:58:32;99152.63;;;10.01;54.47
47706;BME280;33471;52.104;1.318;2022-11-18T06:01:03;99157.77;;;8.88;55.40
47706;BME280;33471;52.104;1.318;2022-11-18T06:03:36;99161.05;;;10.25;54.37
47706;BME280;33471;52.104;1.318;2022-11-18T06:06:05;99165.23;;;10.02;53.21
47706;BME280;33471;52.104;1.318;2022-11-18T06:08:35;99174.58;;;10.13;53.98
47706;BME280;33471;52.104;1.318;2022-11-18T06:11:04;99174.56;;;10.44;52.49
47706;BME280;33471;52.104;1.318;2022-11-18T06:13:36;99175.47;;;10.42;52.67
47706;BME280;33471;52.104;1.318;2022-11-18T06:16:06;99186.28;;;9.44;54.12
47706;BME280;33471;52.104;1.318;2022-11-18T06:18:34;99191.50;;;10.08;54.44
47706;BME280;33471;52.104;1.318;2022-11-18T06:21:03;99188.75;;;10.16;53.32
47706;BME280;33471;52.104;1.318;2022-11-18T06:23:35;99192.84;;;10.65;53.07
47706;BME280;33471;52.104;1.318;2022-11-18T06:26:03;99203.59;;;9.82;53.72
47706;BME280;33471;52.104;1.318;2022-11-18T06:28:30;99197.23;;;11.15;51.50
47706;BME280;33471;52.104;1.318;2022-11-18T06:30:58;99205.62;;;10.43;52.41
47706;BME280;33471;52.104;1.318;2022-11-18T06:33:25;99209.87;;;11.12;51.96
47706;BME280;33471;52.104;1.318;2022-11-18T06:35:53;99217.42;;;10.26;52.94
47706;BME280;33471;52.104;1.318;2022-11-18T06:38:22;99221.44;;;11.07;50.92
47706;BME280;33471;52.104;1.318;2022-11-18T06:40:50;99226.68;;;11.08;50.72
47706;BME280;33471;52.104;1.318;2022-11-18T06:43:17;99234.43;;;10.32;51.73
47706;BME280;33471;52.104;1.318;2022-11-18T06:45:44;99242.05;;;10.28;52.45
47706;BME280;33471;52.104;1.318;2022-11-18T06:48:11;99247.30;;;10.54;52.24
47706;BME280;33471;52.104;1.318;2022-11-18T06:50:38;99247.79;;;10.19;52.33
47706;BME280;33471;52.104;1.318;2022-11-18T06:53:05;99260.01;;;9.57;53.68
47706;BME280;33471;52.104;1.318;2022-11-18T06:55:34;99263.77;;;9.32;54.79
47706;BME280;33471;52.104;1.318;2022-11-18T06:58:01;99266.93;;;9.72;52.55
47706;BME280;33471;52.104;1.318;2022-11-18T07:00:29;99268.14;;;9.04;55.29
47706;BME280;33471;52.104;1.318;2022-11-18T07:02:56;99275.26;;;10.60;51.80
47706;BME280;33471;52.104;1.318;2022-11-18T07:05:24;99282.91;;;10.06;52.81
47706;BME280;33471;52.104;1.318;2022-11-18T07:07:51;99285.93;;;10.32;52.17
47706;BME280;33471;52.104;1.318;2022-11-18T07:10:18;99296.67;;;9.80;53.23
47706;BME280;33471;52.104;1.318;2022-11-18T07:12:45;99296.77;;;10.23;52.28
47706;BME280;33471;52.104;1.318;2022-11-18T07:15:12;99304.01;;;10.61;51.22
47706;BME280;33471;52.104;1.318;2022-11-18T07:17:39;99307.82;;;10.58;51.74
47706;BME280;33471;52.104;1.318;2022-11-18T07:20:07;99316.85;;;9.90;52.76
47706;BME280;33471;52.104;1.318;2022-11-18T07:22:34;99328.18;;;10.12;52.90
47706;BME280;33471;52.104;1.318;2022-11-18T07:25:02;99340.73;;;8.73;54.14
47706;BME280;33471;52.104;1.318;2022-11-18T07:27:29;99338.92;;;9.48;53.67
47706;BME280;33471;52.104;1.318;2022-11-18T07:29:57;99345.11;;;9.70;52.66
47706;BME280;33471;52.104;1.318;2022-11-18T07:32:24;99348.92;;;10.46;52.44
47706;BME280;33471;52.104;1.318;2022-11-18T07:34:51;99347.85;;;10.68;51.57
47706;BME280;33471;52.104;1.318;2022-11-18T07:37:18;99350.94;;;10.96;50.63
47706;BME280;33471;52.104;1.318;2022-11-18T07:39:45;99355.19;;;11.03;51.17
47706;BME280;33471;52.104;1.318;2022-11-18T07:42:12;99361.31;;;10.65;51.30
47706;BME280;33471;52.104;1.318;2022-11-18T07:44:39;99364.05;;;10.63;51.36
47706;BME280;33471;52.104;1.318;2022-11-18T07:47:06;99364.78;;;9.53;52.58
47706;BME280;33471;52.104;1.318;2022-11-18T07:49:33;99369.09;;;10.59;51.46
47706;BME280;33471;52.104;1.318;2022-11-18T07:52:01;99368.52;;;10.79;50.13
47706;BME280;33471;52.104;1.318;2022-11-18T07:54:28;99377.52;;;11.22;50.13
47706;BME280;33471;52.104;1.318;2022-11-18T07:56:56;99386.62;;;10.78;50.69
47706;BME280;33471;52.104;1.318;2022-11-18T07:59:24;99389.51;;;11.13;50.23
47706;BME280;33471;52.104;1.318;2022-11-18T08:01:51;99393.99;;;11.13;50.26
47706;BME280;33471;52.104;1.318;2022-11-18T08:04:18;99400.98;;;11.54;49.51
47706;BME280;33471;52.104;1.318;2022-11-18T08:06:45;99405.98;;;11.26;50.11
47706;BME280;33471;52.104;1.318;2022-11-18T08:09:12;99410.91;;;10.37;51.15
47706;BME280;33471;52.104;1.318;2022-11-18T08:11:40;99417.62;;;10.75;51.06
47706;BME280;33471;52.104;1.318;2022-11-18T08:14:07;99418.54;;;11.29;49.27
47706;BME280;33471;52.104;1.318;2022-11-18T08:16:34;99423.53;;;11.60;49.31
47706;BME280;33471;52.104;1.318;2022-11-18T08:19:01;99429.40;;;11.39;48.83
47706;BME280;33471;52.104;1.318;2022-11-18T08:21:29;99433.92;;;11.69;48.97
47706;BME280;33471;52.104;1.318;2022-11-18T08:23:57;99435.32;;;11.54;48.67
47706;BME280;33471;52.104;1.318;2022-11-18T08:26:26;99437.99;;;11.58;49.61
47706;BME280;33471;52.104;1.318;2022-11-18T08:28:54;99445.76;;;11.49;50.25
47706;BME280;33471;52.104;1.318;2022-11-18T08:31:23;99446.91;;;10.85;50.36
47706;BME280;33471;52.104;1.318;2022-11-18T08:33:54;99447.68;;;11.02;50.75
47706;BME280;33471;52.104;1.318;2022-11-18T08:36:23;99453.87;;;10.58;51.24
47706;BME280;33471;52.104;1.318;2022-11-18T08:38:51;99453.81;;;10.98;51.34
47706;BME280;33471;52.104;1.318;2022-11-18T08:41:23;99460.76;;;10.79;50.80
47706;BME280;33471;52.104;1.318;2022-11-18T08:43:51;99463.94;;;10.31;51.51
47706;BME280;33471;52.104;1.318;2022-11-18T08:46:18;99472.59;;;11.55;48.97
47706;BME280;33471;52.104;1.318;2022-11-18T08:48:45;99473.42;;;11.78;49.12
47706;BME280;33471;52.104;1.318;2022-11-18T08:51:13;99477.50;;;11.42;49.17
47706;BME280;33471;52.104;1.318;2022-11-18T08:53:40;99482.29;;;10.68;50.92
47706;BME280;33471;52.104;1.318;2022-11-18T08:56:13;99488.29;;;11.26;50.29
47706;BME280;33471;52.104;1.318;2022-11-18T08:58:42;99488.74;;;10.96;50.78
47706;BME280;33471;52.104;1.318;2022-11-18T09:01:09;99490.47;;;10.33;51.79
47706;BME280;33471;52.104;1.318;2022-11-18T09:03:36;99491.79;;;11.02;51.49
47706;BME280;33471;52.104;1.318;2022-11-18T09:06:06;99494.59;;;10.72;50.53
47706;BME280;33471;52.104;1.318;2022-11-18T09:08:34;99498.20;;;9.33;53.90
47706;BME280;33471;52.104;1.318;2022-11-18T09:11:05;99501.95;;;10.22;51.31
47706;BME280;33471;52.104;1.318;2022-11-18T09:13:33;99504.04;;;9.96;53.00
47706;BME280;33471;52.104;1.318;2022-11-18T09:16:01;99508.21;;;9.56;52.13
47706;BME280;33471;52.104;1.318;2022-11-18T09:18:28;99515.32;;;11.16;51.01
47706;BME280;33471;52.104;1.318;2022-11-18T09:20:57;99514.97;;;9.98;52.63
47706;BME280;33471;52.104;1.318;2022-11-18T09:23:26;99525.97;;;11.37;49.87
47706;BME280;33471;52.104;1.318;2022-11-18T09:25:57;99528.26;;;11.11;49.74
47706;BME280;33471;52.104;1.318;2022-11-18T09:28:24;99530.68;;;10.81;50.88
47706;BME280;33471;52.104;1.318;2022-11-18T09:30:51;99535.52;;;11.48;50.36
47706;BME280;33471;52.104;1.318;2022-11-18T09:33:18;99539.44;;;11.74;49.89
47706;BME280;33471;52.104;1.318;2022-11-18T09:35:45;99543.51;;;11.13;50.14
47706;BME280;33471;52.104;1.318;2022-11-18T09:38:13;99543.99;;;11.20;50.07
47706;BME280;33471;52.104;1.318;2022-11-18T09:40:47;99548.28;;;12.03;47.88
47706;BME280;33471;52.104;1.318;2022-11-18T09:43:21;99550.72;;;10.21;51.29
47706;BME280;33471;52.104;1.318;2022-11-18T09:45:55;99557.89;;;11.97;48.02
47706;BME280;33471;52.104;1.318;2022-11-18T09:48:24;99560.60;;;10.52;51.06
47706;BME280;33471;52.104;1.318;2022-11-18T09:50:52;99562.04;;;11.35;48.78
47706;BME280;33471;52.104;1.318;2022-11-18T09:53:20;99562.32;;;10.14;52.23
47706;BME280;33471;52.104;1.318;2022-11-18T09:55:49;99569.33;;;9.98;52.90
47706;BME280;33471;52.104;1.318;2022-11-18T09:58:30;99573.30;;;10.72;50.25
47706;BME280;33471;52.104;1.318;2022-11-18T10:00:59;99574.45;;;10.51;50.21
47706;BME280;33471;52.104;1.318;2022-11-18T10:03:28;99583.67;;;11.06;49.67
47706;BME280;33471;52.104;1.318;2022-11-18T10:05:59;99586.46;;;12.26;47.45
47706;BME280;33471;52.104;1.318;2022-11-18T10:08:34;99589.10;;;10.73;50.18
47706;BME280;33471;52.104;1.318;2022-11-18T10:11:07;99595.66;;;11.28;48.58
47706;BME280;33471;52.104;1.318;2022-11-18T10:13:49;99600.19;;;10.82;50.11
47706;BME280;33471;52.104;1.318;2022-11-18T10:16:31;99604.39;;;11.17;49.77
47706;BME280;33471;52.104;1.318;2022-11-18T10:19:08;99609.65;;;11.37;47.86
47706;BME280;33471;52.104;1.318;2022-11-18T10:21:45;99612.39;;;12.52;47.50
47706;BME280;33471;52.104;1.318;2022-11-18T10:24:19;99614.72;;;12.65;47.67
47706;BME280;33471;52.104;1.318;2022-11-18T10:26:47;99624.15;;;11.49;48.79
47706;BME280;33471;52.104;1.318;2022-11-18T10:29:19;99625.91;;;11.40;49.23
47706;BME280;33471;52.104;1.318;2022-11-18T10:31:55;99630.07;;;12.36;47.64
47706;BME280;33471;52.104;1.318;2022-11-18T10:34:23;99631.24;;;11.43;49.16
47706;BME280;33471;52.104;1.318;2022-11-18T10:37:00;99635.50;;;11.39;50.04
47706;BME280;33471;52.104;1.318;2022-11-18T10:39:29;99632.51;;;12.88;47.03
47706;BME280;33471;52.104;1.318;2022-11-18T10:42:00;99633.48;;;12.30;47.63
47706;BME280;33471;52.104;1.318;2022-11-18T10:44:31;99642.66;;;11.93;48.68
47706;BME280;33471;52.104;1.318;2022-11-18T10:47:31;99648.99;;;13.26;47.32
47706;BME280;33471;52.104;1.318;2022-11-18T10:50:00;99650.23;;;10.95;49.80
47706;BME280;33471;52.104;1.318;2022-11-18T10:52:28;99653.26;;;11.43;48.99
47706;BME280;33471;52.104;1.318;2022-11-18T10:55:08;99662.43;;;11.97;48.47
47706;BME280;33471;52.104;1.318;2022-11-18T10:57:43;99659.85;;;13.21;46.24
47706;BME280;33471;52.104;1.318;2022-11-18T11:00:33;99662.42;;;13.35;46.13
47706;BME280;33471;52.104;1.318;2022-11-18T11:04:00;99664.63;;;13.18;48.15
47706;BME280;33471;52.104;1.318;2022-11-18T11:06:33;99666.30;;;13.00;47.01
47706;BME280;33471;52.104;1.318;2022-11-18T11:09:05;99664.82;;;12.15;46.69
47706;BME280;33471;52.104;1.318;2022-11-18T11:11:34;99673.74;;;12.58;47.27
47706;BME280;33471;52.104;1.318;2022-11-18T11:14:16;99680.11;;;11.96;47.54
47706;BME280;33471;52.104;1.318;2022-11-18T11:16:50;99678.89;;;13.05;46.99
47706;BME280;33471;52.104;1.318;2022-11-18T11:19:22;99677.17;;;13.41;46.40
47706;BME280;33471;52.104;1.318;2022-11-18T11:21:51;99682.12;;;13.29;46.14
47706;BME280;33471;52.104;1.318;2022-11-18T11:24:19;99683.40;;;13.43;45.61
47706;BME280;33471;52.104;1.318;2022-11-18T11:26:57;99682.67;;;13.42;45.76
47706;BME280;33471;52.104;1.318;2022-11-18T11:29:44;99685.00;;;13.72;45.47
47706;BME280;33471;52.104;1.318;2022-11-18T11:32:25;99685.89;;;13.20;45.40
47706;BME280;33471;52.104;1.318;2022-11-18T11:35:04;99696.29;;;11.69;47.71
47706;BME280;33471;52.104;1.318;2022-11-18T11:37:44;99698.51;;;12.42;47.58
47706;BME280;33471;52.104;1.318;2022-11-18T11:40:23;99700.33;;;13.14;46.84
47706;BME280;33471;52.104;1.318;2022-11-18T11:43:03;99698.12;;;13.67;46.43
47706;BME280;33471;52.104;1.318;2022-11-18T11:45:41;99701.86;;;12.74;47.24
47706;BME280;33471;52.104;1.318;2022-11-18T11:48:24;99699.77;;;12.74;47.63
47706;BME280;33471;52.104;1.318;2022-11-18T11:50:59;99702.44;;;12.80;46.62
47706;BME280;33471;52.104;1.318;2022-11-18T11:53:44;99704.51;;;12.60;46.95
47706;BME280;33471;52.104;1.318;2022-11-18T11:56:19;99699.59;;;13.36;45.67
47706;BME280;33471;52.104;1.318;2022-11-18T11:59:03;99709.74;;;12.66;47.26
47706;BME280;33471;52.104;1.318;2022-11-18T12:01:36;99703.30;;;13.73;45.18
47706;BME280;33471;52.104;1.318;2022-11-18T12:04:22;99711.21;;;12.92;45.68
47706;BME280;33471;52.104;1.318;2022-11-18T12:06:55;99710.90;;;13.47;45.23
47706;BME280;33471;52.104;1.318;2022-11-18T12:09:30;99717.06;;;13.25;46.21
47706;BME280;33471;52.104;1.318;2022-11-18T12:12:06;99730.32;;;12.24;45.82
47706;BME280;33471;52.104;1.318;2022-11-18T12:14:41;99725.93;;;13.01;45.83
47706;BME280;33471;52.104;1.318;2022-11-18T12:17:17;99728.68;;;12.56;46.59
47706;BME280;33471;52.104;1.318;2022-11-18T12:19:47;99731.66;;;11.07;50.39
47706;BME280;33471;52.104;1.318;2022-11-18T12:22:15;99734.67;;;12.22;48.02
47706;BME280;33471;52.104;1.318;2022-11-18T12:24:42;99739.21;;;13.07;46.72
47706;BME280;33471;52.104;1.318;2022-11-18T12:27:12;99733.90;;;11.23;49.39
47706;BME280;33471;52.104;1.318;2022-11-18T12:29:51;99736.40;;;11.75;49.20
47706;BME280;33471;52.104;1.318;2022-11-18T12:32:37;99743.53;;;10.80;51.81
47706;BME280;33471;52.104;1.318;2022-11-18T12:35:22;99740.46;;;11.23;48.48
47706;BME280;33471;52.104;1.318;2022-11-18T12:38:00;99743.13;;;12.51;47.87
47706;BME280;33471;52.104;1.318;2022-11-18T12:40:34;99751.44;;;11.30;50.24
47706;BME280;33471;52.104;1.318;2022-11-18T12:43:04;99757.97;;;9.68;52.94
47706;BME280;33471;52.104;1.318;2022-11-18T12:45:50;99753.10;;;11.38;50.69
47706;BME280;33471;52.104;1.318;2022-11-18T12:48:51;99756.78;;;12.75;49.55
47706;BME280;33471;52.104;1.318;2022-11-18T12:51:40;99758.09;;;11.90;47.95
47706;BME280;33471;52.104;1.318;2022-11-18T12:54:26;99763.96;;;11.10;49.09
47706;BME280;33471;52.104;1.318;2022-11-18T12:56:58;99771.04;;;11.47;49.90
47706;BME280;33471;52.104;1.318;2022-11-18T12:59:28;99770.91;;;11.66;48.69
47706;BME280;33471;52.104;1.318;2022-11-18T13:02:05;99776.63;;;11.96;48.67
47706;BME280;33471;52.104;1.318;2022-11-18T13:04:41;99778.65;;;11.78;49.00
47706;BME280;33471;52.104;1.318;2022-11-18T13:07:10;99789.07;;;10.78;50.78
47706;BME280;33471;52.104;1.318;2022-11-18T13:09:38;99788.64;;;11.19;49.67
47706;BME280;33471;52.104;1.318;2022-11-18T13:12:10;99787.00;;;12.05;47.56
47706;BME280;33471;52.104;1.318;2022-11-18T13:14:42;99788.02;;;11.44;49.53
47706;BME280;33471;52.104;1.318;2022-11-18T13:17:28;99797.35;;;12.27;47.63
47706;BME280;33471;52.104;1.318;2022-11-18T13:19:56;99798.17;;;11.51;48.38
47706;BME280;33471;52.104;1.318;2022-11-18T13:22:24;99812.24;;;10.98;49.53
47706;BME280;33471;52.104;1.318;2022-11-18T13:24:52;99811.57;;;10.03;52.55